Time;durP1;ratioP1;P1;durP2;ratioP2;P2;SDS_P1;SDS_P2;PMS_P1;PMS_P2;Temp;Humidity;BMP_temperature;BMP_pressure;BME280_temperature;BME280_humidity;BME280_pressure;Samples;Min_cycle;Max_cycle;Signal;HPM_P1;HPM_P2
2022/01/18 13:54:49;;;;;;;;;;;25.30;46.30;;;;;;3801006;23;19909;-89
2022/01/18 13:56:23;;;;;;;;;;;25.30;46.40;;;;;;3797950;23;19928;-89
2022/01/18 13:57:55;;;;;;;;;;;25.40;47.60;;;;;;3797997;22;19924;-90
2022/01/18 13:59:30;;;;;;;;;;;25.40;48.10;;;;;;3799414;22;19921;-92
2022/01/18 14:01:07;;;;;;;;;;;25.40;47.30;;;;;;3798853;22;19943;-91
2022/01/18 14:02:42;;;;;;;;;;;25.40;47.00;;;;;;3799706;22;19940;-91
2022/01/18 14:04:14;;;;;;;;;;;25.50;47.30;;;;;;3797966;22;19928;-89
2022/01/18 14:05:47;;;;;;;;;;;25.40;47.50;;;;;;3798565;22;20284;-92
2022/01/18 14:07:19;;;;;;;;;;;25.40;48.40;;;;;;3799545;22;19932;-91
2022/01/18 14:08:51;;;;;;;;;;;25.40;42.50;;;;;;3799156;22;19928;-89
2022/01/18 14:10:26;;;;;;;;;;;25.20;41.20;;;;;;3799039;22;19974;-92
2022/01/18 14:11:57;;;;;;;;;;;25.20;41.40;;;;;;3798958;22;19921;-90
2022/01/18 14:13:37;;;;;;;;;;;25.10;41.30;;;;;;3797955;22;19928;-92
2022/01/18 14:15:11;;;;;;;;;;;25.10;41.50;;;;;;3800646;22;19921;-89
2022/01/18 14:16:46;;;;;;;;;;;25.00;41.90;;;;;;3798715;22;20015;-92
2022/01/18 14:18:17;;;;;;;;;;;24.90;42.30;;;;;;3797810;22;19921;-90
2022/01/18 14:19:51;;;;;;;;;;;24.80;42.30;;;;;;3799551;23;19988;-90
2022/01/18 14:21:30;;;;;;;;;;;24.70;42.50;;;;;;3798686;22;19959;-91
2022/01/18 14:23:02;;;;;;;;;;;24.60;42.70;;;;;;3798454;22;20325;-91
2022/01/18 14:24:35;;;;;;;;;;;24.50;42.90;;;;;;3796980;22;22410;-91
2022/01/18 14:26:20;;;;;;;;;;;24.60;43.00;;;;;;3799364;23;19921;-92
2022/01/18 14:27:52;;;;;;;;;;;24.70;42.90;;;;;;3798713;22;19921;-90
2022/01/18 14:29:24;;;;;;;;;;;24.60;42.90;;;;;;3798999;22;19921;-90
2022/01/18 14:30:58;;;;;;;;;;;24.50;43.10;;;;;;3797366;22;20408;-90
2022/01/18 14:32:31;;;;;;;;;;;24.50;43.10;;;;;;3796263;22;19929;-92
2022/01/18 14:34:03;;;;;;;;;;;24.60;43.10;;;;;;3800725;22;19925;-91
2022/01/18 14:35:53;;;;;;;;;;;24.50;43.20;;;;;;3799661;22;19948;-93
2022/01/18 14:37:34;;;;;;;;;;;24.50;43.10;;;;;;3798018;22;20387;-91
2022/01/18 14:39:07;;;;;;;;;;;24.30;43.50;;;;;;3797760;23;19924;-91
2022/01/18 14:40:39;;;;;;;;;;;24.30;43.50;;;;;;3800512;23;20000;-92
2022/01/18 14:42:12;;;;;;;;;;;24.20;43.60;;;;;;3797610;22;20004;-92
2022/01/18 14:43:45;;;;;;;;;;;24.10;43.80;;;;;;3799967;22;19925;-91
2022/01/18 14:45:39;;;;;;;;;;;24.10;44.00;;;;;;3798483;22;19944;-91
2022/01/18 14:47:25;;;;;;;;;;;24.20;44.30;;;;;;3797197;22;19968;-91
2022/01/18 14:49:00;;;;;;;;;;;24.20;43.70;;;;;;3799109;22;20306;-92
2022/01/18 14:50:32;;;;;;;;;;;24.10;43.70;;;;;;3800245;23;19921;-91
2022/01/18 14:52:06;;;;;;;;;;;24.10;43.80;;;;;;3799234;22;19928;-93
2022/01/18 14:53:40;;;;;;;;;;;24.10;43.70;;;;;;3801641;22;19948;-90
2022/01/18 14:55:12;;;;;;;;;;;24.10;43.90;;;;;;3797436;22;19929;-91
2022/01/18 14:56:43;;;;;;;;;;;24.10;43.90;;;;;;3797887;22;20000;-91
2022/01/18 14:58:17;;;;;;;;;;;24.00;43.90;;;;;;3798261;22;19932;-92
2022/01/18 14:59:49;;;;;;;;;;;24.00;44.00;;;;;;3798650;22;19996;-90
2022/01/18 15:01:21;;;;;;;;;;;24.00;44.10;;;;;;3800339;22;19928;-88
2022/01/18 15:02:53;;;;;;;;;;;24.00;44.20;;;;;;3796248;22;20355;-90
2022/01/18 15:04:25;;;;;;;;;;;24.10;44.00;;;;;;3800436;22;19992;-90
2022/01/18 15:05:57;;;;;;;;;;;24.00;44.10;;;;;;3799465;22;19928;-86
2022/01/18 15:07:48;;;;;;;;;;;23.90;44.40;;;;;;3797351;22;19967;-94
2022/01/18 15:09:20;;;;;;;;;;;23.80;44.50;;;;;;3800126;23;19961;-91
2022/01/18 15:11:08;;;;;;;;;;;23.80;44.50;;;;;;3799474;22;19921;-93
2022/01/18 15:12:40;;;;;;;;;;;23.80;44.60;;;;;;3797745;22;19921;-92
2022/01/18 15:14:13;;;;;;;;;;;23.70;44.70;;;;;;3799203;23;19942;-91
2022/01/18 15:15:45;;;;;;;;;;;23.70;44.80;;;;;;3800381;22;20059;-92
2022/01/18 15:17:17;;;;;;;;;;;23.70;44.80;;;;;;3799016;22;20250;-90
2022/01/18 15:18:51;;;;;;;;;;;23.80;44.70;;;;;;3798070;22;19921;-92
2022/01/18 15:20:23;;;;;;;;;;;23.80;44.60;;;;;;3798869;22;19921;-91
2022/01/18 15:21:55;;;;;;;;;;;23.80;44.70;;;;;;3799276;23;20252;-91
2022/01/18 15:23:27;;;;;;;;;;;23.70;44.90;;;;;;3796804;22;20322;-90
2022/01/18 15:24:58;;;;;;;;;;;23.60;44.90;;;;;;3801600;22;19921;-90
2022/01/18 15:26:30;;;;;;;;;;;23.60;45.40;;;;;;3801193;23;19943;-92
2022/01/18 15:28:02;;;;;;;;;;;23.60;45.40;;;;;;3798038;22;20340;-93
2022/01/18 15:29:36;;;;;;;;;;;23.60;45.10;;;;;;3799639;22;20351;-92
2022/01/18 15:31:07;;;;;;;;;;;23.70;45.00;;;;;;3797739;22;19921;-93
2022/01/18 15:32:39;;;;;;;;;;;23.70;45.90;;;;;;3798507;22;19967;-92
2022/01/18 15:34:11;;;;;;;;;;;23.80;45.90;;;;;;3798490;22;20340;-91
2022/01/18 15:35:42;;;;;;;;;;;23.80;45.40;;;;;;3799340;22;19970;-90
2022/01/18 15:37:18;;;;;;;;;;;23.80;45.00;;;;;;3786657;22;19979;-93
2022/01/18 15:38:50;;;;;;;;;;;23.70;44.90;;;;;;3799692;23;19927;-93
2022/01/18 15:40:21;;;;;;;;;;;23.70;45.00;;;;;;3800896;22;20390;-90
2022/01/18 15:41:53;;;;;;;;;;;23.70;45.10;;;;;;3798426;22;19966;-91
2022/01/18 15:43:25;;;;;;;;;;;23.70;46.40;;;;;;3797547;22;19992;-89
2022/01/18 15:44:58;;;;;;;;;;;23.90;46.70;;;;;;3798011;22;19925;-88
2022/01/18 15:46:30;;;;;;;;;;;24.00;46.10;;;;;;3797333;22;19947;-90
2022/01/18 15:48:01;;;;;;;;;;;24.00;46.50;;;;;;3798970;22;19937;-92
2022/01/18 15:49:33;;;;;;;;;;;24.10;47.80;;;;;;3800931;23;19921;-89
2022/01/18 15:51:05;;;;;;;;;;;24.20;47.00;;;;;;3801775;23;19965;-91
2022/01/18 15:52:37;;;;;;;;;;;24.10;48.20;;;;;;3799490;22;19921;-90
2022/01/18 15:54:08;;;;;;;;;;;24.20;48.00;;;;;;3801590;23;19921;-92
2022/01/18 15:55:40;;;;;;;;;;;24.20;46.90;;;;;;3798084;22;19966;-91
2022/01/18 15:57:13;;;;;;;;;;;24.30;46.70;;;;;;3798525;22;19921;-89
2022/01/18 15:58:45;;;;;;;;;;;24.30;47.60;;;;;;3801770;22;20356;-89
2022/01/18 16:00:18;;;;;;;;;;;24.30;47.50;;;;;;3800100;22;19928;-91
2022/01/18 16:01:51;;;;;;;;;;;24.30;47.70;;;;;;3800946;22;19949;-93
2022/01/18 16:03:22;;;;;;;;;;;24.30;48.40;;;;;;3804411;22;19943;-94
2022/01/18 16:04:55;;;;;;;;;;;24.40;47.70;;;;;;3801422;22;19921;-90
2022/01/18 16:06:27;;;;;;;;;;;24.40;48.30;;;;;;3800330;22;19928;-91
2022/01/18 16:07:58;;;;;;;;;;;24.40;48.20;;;;;;3797966;22;19928;-92
2022/01/18 16:09:30;;;;;;;;;;;24.40;48.40;;;;;;3800407;23;19920;-92
2022/01/18 16:11:02;;;;;;;;;;;24.40;48.20;;;;;;3804030;22;19971;-89
2022/01/18 16:12:34;;;;;;;;;;;24.40;48.30;;;;;;3801707;22;20309;-90
2022/01/18 16:14:06;;;;;;;;;;;24.40;48.00;;;;;;3803193;22;19925;-90
2022/01/18 16:15:39;;;;;;;;;;;24.40;48.40;;;;;;3800843;22;19927;-91
2022/01/18 16:17:11;;;;;;;;;;;24.40;47.70;;;;;;3799629;22;19971;-90
2022/01/18 16:18:43;;;;;;;;;;;24.40;47.60;;;;;;3801211;22;19940;-90
2022/01/18 16:20:15;;;;;;;;;;;24.40;48.10;;;;;;3800867;22;20004;-89
2022/01/18 16:21:47;;;;;;;;;;;24.40;47.30;;;;;;3801984;22;19921;-89
2022/01/18 16:23:18;;;;;;;;;;;24.40;47.30;;;;;;3799237;22;20352;-89
2022/01/18 16:24:50;;;;;;;;;;;24.40;47.20;;;;;;3800419;22;19921;-89
2022/01/18 16:26:22;;;;;;;;;;;24.40;47.10;;;;;;3799277;22;19921;-90
2022/01/18 16:27:53;;;;;;;;;;;24.40;47.10;;;;;;3800274;22;19921;-89
2022/01/18 16:29:25;;;;;;;;;;;24.40;47.00;;;;;;3801531;22;19925;-91
2022/01/18 16:30:58;;;;;;;;;;;24.40;47.00;;;;;;3799437;22;19978;-90
2022/01/18 16:32:30;;;;;;;;;;;24.40;47.00;;;;;;3799245;22;19921;-90
2022/01/18 16:34:02;;;;;;;;;;;24.40;46.90;;;;;;3800987;22;19921;-90
2022/01/18 16:35:35;;;;;;;;;;;24.40;46.90;;;;;;3798719;22;19941;-89
2022/01/18 16:37:07;;;;;;;;;;;24.40;46.80;;;;;;3801357;22;19921;-89
2022/01/18 16:38:39;;;;;;;;;;;24.40;46.80;;;;;;3800039;22;19998;-90
2022/01/18 16:40:11;;;;;;;;;;;24.40;46.80;;;;;;3801305;23;19943;-89
2022/01/18 16:41:42;;;;;;;;;;;24.40;46.80;;;;;;3802272;22;19925;-89
2022/01/18 16:43:14;;;;;;;;;;;24.40;46.70;;;;;;3800189;22;19921;-89
2022/01/18 16:44:46;;;;;;;;;;;24.40;46.70;;;;;;3802108;22;19948;-90
2022/01/18 16:46:19;;;;;;;;;;;24.40;46.70;;;;;;3799503;22;19925;-89
2022/01/18 16:47:51;;;;;;;;;;;24.40;46.70;;;;;;3798954;22;20298;-89
2022/01/18 16:49:23;;;;;;;;;;;24.40;46.60;;;;;;3800753;22;20368;-89
2022/01/18 16:50:54;;;;;;;;;;;24.40;46.60;;;;;;3798984;22;19959;-89
2022/01/18 16:52:26;;;;;;;;;;;24.30;44.70;;;;;;3799291;22;20335;-90
2022/01/18 16:53:57;;;;;;;;;;;24.20;44.40;;;;;;3799887;22;20030;-92
2022/01/18 16:55:29;;;;;;;;;;;24.10;44.60;;;;;;3798482;23;19971;-91
2022/01/18 16:57:01;;;;;;;;;;;24.00;44.90;;;;;;3800354;22;19943;-88
2022/01/18 16:58:36;;;;;;;;;;;23.80;45.20;;;;;;3799827;23;19924;-90
2022/01/18 17:00:09;;;;;;;;;;;23.90;45.50;;;;;;3800001;22;20406;-87
2022/01/18 17:01:42;;;;;;;;;;;23.90;45.50;;;;;;3798415;22;19948;-89
2022/01/18 17:03:13;;;;;;;;;;;24.00;45.50;;;;;;3799199;22;19929;-90
2022/01/18 17:04:45;;;;;;;;;;;24.00;45.40;;;;;;3800097;22;20015;-89
2022/01/18 17:06:17;;;;;;;;;;;24.10;45.40;;;;;;3799384;22;19921;-88
2022/01/18 17:07:48;;;;;;;;;;;24.10;45.50;;;;;;3799707;22;19971;-88
2022/01/18 17:09:20;;;;;;;;;;;24.10;45.50;;;;;;3798877;23;19970;-89
2022/01/18 17:10:52;;;;;;;;;;;24.10;45.50;;;;;;3800098;23;20306;-89
2022/01/18 17:12:23;;;;;;;;;;;24.10;45.50;;;;;;3800910;22;20310;-90
2022/01/18 17:13:55;;;;;;;;;;;24.10;45.50;;;;;;3799637;22;19931;-90
2022/01/18 17:15:27;;;;;;;;;;;24.20;45.60;;;;;;3799298;22;19982;-88
2022/01/18 17:17:02;;;;;;;;;;;24.20;45.70;;;;;;3799153;22;20047;-89
2022/01/18 17:18:33;;;;;;;;;;;24.20;45.70;;;;;;3800085;22;19921;-89
2022/01/18 17:20:05;;;;;;;;;;;24.10;45.70;;;;;;3799989;22;19964;-89
2022/01/18 17:21:37;;;;;;;;;;;24.10;45.70;;;;;;3799178;22;19978;-90
2022/01/18 17:23:09;;;;;;;;;;;24.20;45.80;;;;;;3798662;22;19929;-89
2022/01/18 17:24:41;;;;;;;;;;;24.20;45.80;;;;;;3800059;23;20355;-89
2022/01/18 17:26:12;;;;;;;;;;;24.10;45.80;;;;;;3800156;22;19951;-89
2022/01/18 17:27:44;;;;;;;;;;;24.20;45.80;;;;;;3799702;22;19928;-90
2022/01/18 17:29:16;;;;;;;;;;;24.20;45.90;;;;;;3799898;22;19991;-88
2022/01/18 17:30:48;;;;;;;;;;;24.20;45.90;;;;;;3798254;22;19921;-89
2022/01/18 17:32:21;;;;;;;;;;;24.20;45.90;;;;;;3799050;22;19933;-89
2022/01/18 18:15:58;;;;;;;;;;;24.10;46.20;;;;;;3814359;22;19943;-89
2022/01/18 18:17:30;;;;;;;;;;;24.10;46.10;;;;;;3814677;22;20437;-89
2022/01/18 18:19:01;;;;;;;;;;;24.10;46.20;;;;;;3814921;22;19920;-89
2022/01/18 18:20:34;;;;;;;;;;;24.10;46.20;;;;;;3815667;22;19978;-90
2022/01/18 18:22:05;;;;;;;;;;;24.10;46.20;;;;;;3814736;22;19921;-88
2022/01/18 18:23:37;;;;;;;;;;;24.10;46.20;;;;;;3814639;22;19978;-88
2022/01/18 18:25:09;;;;;;;;;;;24.10;46.20;;;;;;3804955;22;19928;-88
2022/01/18 18:26:41;;;;;;;;;;;24.10;46.20;;;;;;3797459;22;20488;-88
2022/01/18 18:28:12;;;;;;;;;;;24.10;46.20;;;;;;3795847;22;19921;-88
2022/01/18 18:29:49;;;;;;;;;;;24.10;46.30;;;;;;3797914;22;19921;-89
2022/01/18 18:31:22;;;;;;;;;;;24.00;46.20;;;;;;3796478;22;20271;-88
2022/01/18 18:32:53;;;;;;;;;;;24.10;46.20;;;;;;3795896;22;19920;-90
2022/01/18 18:34:25;;;;;;;;;;;24.10;46.30;;;;;;3796586;22;19928;-89
2022/01/18 18:35:57;;;;;;;;;;;24.10;46.20;;;;;;3797600;22;20172;-89
2022/01/18 18:37:32;;;;;;;;;;;24.10;46.20;;;;;;3797363;22;19928;-88
2022/01/18 18:39:14;;;;;;;;;;;24.00;46.20;;;;;;3797365;22;20298;-88
2022/01/18 18:40:54;;;;;;;;;;;24.00;46.20;;;;;;3797030;23;19955;-89
2022/01/18 18:42:27;;;;;;;;;;;24.00;46.20;;;;;;3795849;22;19927;-89
2022/01/18 18:44:11;;;;;;;;;;;24.00;46.20;;;;;;3796981;22;19921;-92
2022/01/18 18:45:43;;;;;;;;;;;24.00;46.50;;;;;;3796542;22;19928;-90
2022/01/18 18:47:16;;;;;;;;;;;24.00;47.20;;;;;;3792488;22;19921;-89
2022/01/18 18:48:47;;;;;;;;;;;24.00;46.60;;;;;;3799317;22;20510;-89
2022/01/18 18:50:19;;;;;;;;;;;24.00;46.50;;;;;;3799568;22;20338;-90
2022/01/18 18:51:51;;;;;;;;;;;24.10;46.50;;;;;;3799813;23;19929;-89
2022/01/18 18:53:23;;;;;;;;;;;24.10;46.50;;;;;;3800189;22;19921;-89
2022/01/18 18:54:55;;;;;;;;;;;24.10;46.40;;;;;;3800791;22;19982;-88
2022/01/18 18:56:26;;;;;;;;;;;24.10;46.30;;;;;;3800213;23;19967;-90
2022/01/18 18:58:06;;;;;;;;;;;24.10;46.20;;;;;;3800803;22;19947;-89
2022/01/18 19:01:40;;;;;;;;;;;24.20;46.20;;;;;;3800148;22;19944;-89
2022/01/18 19:03:15;;;;;;;;;;;24.20;46.10;;;;;;3800313;22;20263;-90
